createdAt,value
2023-04-10T00:00:53.180Z,8.20
2023-04-10T00:01:54.627Z,7.63
2023-04-10T00:02:56.461Z,8.73
2023-04-10T00:03:58.816Z,7.63
2023-04-10T00:05:00.887Z,8.20
2023-04-10T00:06:02.237Z,7.80
2023-04-10T00:07:03.647Z,8.10
2023-04-10T00:08:05.056Z,8.03
2023-04-10T00:09:06.588Z,7.47
2023-04-10T00:10:08.119Z,8.50
2023-04-10T00:11:10.014Z,7.83
2023-04-10T00:12:11.575Z,8.17
2023-04-10T00:13:12.983Z,8.53
2023-04-10T00:14:14.359Z,8.97
2023-04-10T00:15:15.908Z,8.30
2023-04-10T00:16:17.487Z,9.10
2023-04-10T00:17:19.525Z,8.37
2023-04-10T00:18:20.925Z,8.80
2023-04-10T00:19:22.290Z,8.20
2023-04-10T00:20:26.143Z,9.00
2023-04-10T00:21:27.597Z,8.43
2023-04-10T00:22:28.931Z,8.60
2023-04-10T00:23:32.673Z,7.93
2023-04-10T00:24:34.025Z,8.20
2023-04-10T00:25:35.562Z,8.07
2023-04-10T00:26:37.008Z,8.47
2023-04-10T00:27:38.322Z,8.90
2023-04-10T00:28:39.725Z,8.37
2023-04-10T00:29:41.195Z,8.70
2023-04-10T00:30:42.607Z,8.43
2023-04-10T00:31:44.021Z,8.80
2023-04-10T00:32:45.752Z,8.43
2023-04-10T00:33:47.245Z,8.30
2023-04-10T00:34:48.728Z,8.83
2023-04-10T00:35:50.342Z,8.80
2023-04-10T00:36:51.843Z,8.30
2023-04-10T00:37:54.569Z,8.47
2023-04-10T00:38:55.900Z,8.17
2023-04-10T00:39:57.320Z,8.80
2023-04-10T00:40:58.685Z,8.27
2023-04-10T00:42:01.472Z,8.53
2023-04-10T00:43:02.812Z,8.10
2023-04-10T00:44:04.240Z,9.10
2023-04-10T00:45:05.862Z,8.57
2023-04-10T00:46:07.334Z,8.50
2023-04-10T00:47:08.645Z,7.97
2023-04-10T00:48:10.110Z,8.90
2023-04-10T00:49:11.714Z,8.53
2023-04-10T00:50:13.422Z,8.80
2023-04-10T00:51:14.880Z,8.63
2023-04-10T00:52:16.505Z,8.90
2023-04-10T00:53:18.014Z,8.67
2023-04-10T00:54:19.371Z,8.73
2023-04-10T00:55:21.629Z,8.53
2023-04-10T00:56:24.201Z,8.70
2023-04-10T00:57:28.972Z,8.43
2023-04-10T00:58:30.570Z,8.57
2023-04-10T00:59:31.937Z,8.83
2023-04-10T01:00:33.250Z,8.53
2023-04-10T01:01:34.643Z,8.27
2023-04-10T01:02:36.527Z,8.70
2023-04-10T01:03:39.132Z,8.40
2023-04-10T01:04:40.985Z,8.40
2023-04-10T01:05:47.541Z,8.77
2023-04-10T01:06:55.576Z,8.57
2023-04-10T01:08:10.217Z,9.03
2023-04-10T01:09:11.507Z,8.60
2023-04-10T01:10:16.962Z,9.00
2023-04-10T01:11:27.654Z,8.17
2023-04-10T01:12:41.787Z,8.33
2023-04-10T01:14:06.479Z,8.33
2023-04-10T01:15:21.287Z,9.00
2023-04-10T01:16:27.151Z,8.33
2023-04-10T01:17:32.005Z,8.70
2023-04-10T01:18:46.291Z,8.90
2023-04-10T01:20:00.656Z,8.33
2023-04-10T01:21:02.729Z,9.10
2023-04-10T01:22:05.177Z,8.73
2023-04-10T01:23:15.840Z,9.53
2023-04-10T01:24:35.413Z,9.13
2023-04-10T01:25:39.807Z,9.30
2023-04-10T01:26:50.950Z,8.70
2023-04-10T01:28:00.403Z,8.87
2023-04-10T01:29:07.684Z,9.03
2023-04-10T01:30:12.192Z,8.60
2023-04-10T01:31:18.487Z,8.20
2023-04-10T01:32:21.968Z,9.27
2023-04-10T01:33:26.481Z,9.17
2023-04-10T01:34:32.724Z,9.47
2023-04-10T01:35:34.805Z,9.37
2023-04-10T01:36:38.145Z,9.50
2023-04-10T01:37:41.860Z,9.20
2023-04-10T01:38:44.194Z,8.93
2023-04-10T01:39:47.395Z,9.27
2023-04-10T01:40:52.373Z,9.10
2023-04-10T01:42:01.355Z,9.00
2023-04-10T01:43:13.068Z,8.80
2023-04-10T01:44:25.690Z,9.30
2023-04-10T01:45:28.141Z,9.37
2023-04-10T01:46:29.884Z,9.63
2023-04-10T01:47:32.616Z,8.87
2023-04-10T01:48:34.408Z,9.30
2023-04-10T01:49:42.594Z,9.00
2023-04-10T01:50:45.665Z,9.30
2023-04-10T01:51:47.597Z,9.10
2023-04-10T01:52:50.227Z,9.10
2023-04-10T01:53:55.617Z,9.50
2023-04-10T01:55:01.381Z,8.83
2023-04-10T01:56:12.174Z,8.67
2023-04-10T01:57:19.166Z,8.63
2023-04-10T01:58:30.192Z,8.97
2023-04-10T01:59:32.916Z,9.27
2023-04-10T02:00:37.970Z,8.67
2023-04-10T02:01:39.329Z,9.13
2023-04-10T02:02:40.975Z,8.43
2023-04-10T02:03:43.043Z,8.60
2023-04-10T02:04:46.952Z,8.73
2023-04-10T02:05:56.896Z,8.47
2023-04-10T02:07:11.040Z,8.20
2023-04-10T02:08:15.438Z,8.53
2023-04-10T02:09:31.192Z,9.07
2023-04-10T02:10:37.438Z,9.20
2023-04-10T02:11:42.324Z,8.57
2023-04-10T02:12:43.660Z,8.33
2023-04-10T02:13:45.299Z,8.73
2023-04-10T02:14:47.159Z,9.23
2023-04-10T02:15:50.541Z,9.10
2023-04-10T02:16:54.361Z,9.07
2023-04-10T02:17:56.865Z,9.20
2023-04-10T02:18:59.348Z,8.90
2023-04-10T02:20:01.267Z,9.00
2023-04-10T02:21:03.795Z,8.83
2023-04-10T02:22:05.990Z,9.03
2023-04-10T02:23:08.696Z,8.57
2023-04-10T02:24:10.119Z,8.90
2023-04-10T02:25:11.744Z,9.10
2023-04-10T02:26:13.053Z,9.73
2023-04-10T02:27:14.841Z,8.87
2023-04-10T02:28:16.576Z,9.17
2023-04-10T02:29:18.435Z,9.10
2023-04-10T02:30:19.807Z,9.10
2023-04-10T02:31:21.261Z,9.27
2023-04-10T02:32:23.112Z,9.63
2023-04-10T02:33:24.709Z,9.23
2023-04-10T02:34:26.115Z,9.50
2023-04-10T02:35:29.124Z,9.67
2023-04-10T02:36:30.689Z,9.00
2023-04-10T02:37:32.869Z,9.00
2023-04-10T02:38:36.052Z,8.90
2023-04-10T02:39:37.765Z,8.80
2023-04-10T02:40:39.204Z,9.40
2023-04-10T02:41:48.484Z,8.80
2023-04-10T02:42:49.848Z,9.00
2023-04-10T02:43:52.477Z,9.73
2023-04-10T02:44:59.859Z,9.10
2023-04-10T02:46:04.729Z,8.60
2023-04-10T02:47:12.225Z,9.30
2023-04-10T02:48:18.189Z,9.30
2023-04-10T02:49:25.788Z,8.67
2023-04-10T02:50:29.687Z,9.13
2023-04-10T02:51:35.080Z,8.73
2023-04-10T02:52:36.612Z,9.37
2023-04-10T02:53:37.964Z,9.50
2023-04-10T02:54:40.253Z,9.30
2023-04-10T02:55:41.971Z,8.53
2023-04-10T02:56:43.292Z,9.20
2023-04-10T02:57:44.628Z,9.23
2023-04-10T02:58:47.621Z,9.40
2023-04-10T02:59:50.501Z,8.23
2023-04-10T03:00:51.982Z,8.87
2023-04-10T03:02:03.362Z,8.87
2023-04-10T03:03:08.043Z,9.17
2023-04-10T03:04:20.721Z,8.83
2023-04-10T03:05:22.290Z,9.00
2023-04-10T03:06:27.079Z,8.80
2023-04-10T03:07:29.772Z,9.30
2023-04-10T03:08:34.010Z,9.83
2023-04-10T03:09:35.530Z,10.80
2023-04-10T03:10:36.875Z,10.70
2023-04-10T03:11:38.296Z,11.17
2023-04-10T03:12:48.153Z,11.90
2023-04-10T03:13:49.542Z,10.83
2023-04-10T03:14:50.943Z,9.97
2023-04-10T03:15:52.247Z,9.27
2023-04-10T03:16:53.976Z,8.43
2023-04-10T03:17:55.375Z,9.03
2023-04-10T03:18:56.704Z,9.37
2023-04-10T03:19:58.155Z,9.20
2023-04-10T03:20:59.718Z,8.57
2023-04-10T03:22:01.176Z,9.03
2023-04-10T03:23:04.006Z,8.87
2023-04-10T03:24:06.116Z,8.77
2023-04-10T03:25:07.700Z,9.03
2023-04-10T03:26:09.350Z,8.77
2023-04-10T03:27:12.729Z,9.37
2023-04-10T03:28:14.267Z,8.33
2023-04-10T03:29:19.223Z,9.10
2023-04-10T03:30:20.929Z,8.83
2023-04-10T03:31:23.012Z,8.90
2023-04-10T03:32:28.150Z,9.00
2023-04-10T03:33:29.978Z,8.77
2023-04-10T03:34:31.348Z,8.70
2023-04-10T03:35:32.820Z,9.53
2023-04-10T03:36:34.555Z,8.93
2023-04-10T03:37:36.170Z,8.50
2023-04-10T03:38:37.461Z,8.67
2023-04-10T03:39:39.614Z,8.67
2023-04-10T03:40:40.978Z,8.10
2023-04-10T03:41:44.194Z,8.70
2023-04-10T03:42:45.587Z,8.30
2023-04-10T03:43:47.634Z,7.93
2023-04-10T03:44:48.969Z,8.53
2023-04-10T03:45:50.367Z,9.30
2023-04-10T03:46:51.785Z,8.80
2023-04-10T03:47:53.719Z,8.30
2023-04-10T03:48:55.465Z,8.73
2023-04-10T03:49:56.863Z,8.47
2023-04-10T03:50:58.311Z,8.90
2023-04-10T03:51:59.693Z,8.50
2023-04-10T03:53:03.133Z,8.33
2023-04-10T03:54:05.326Z,8.60
2023-04-10T03:55:06.905Z,8.60
2023-04-10T03:56:08.473Z,9.60
2023-04-10T03:57:10.915Z,8.80
2023-04-10T03:58:13.138Z,8.37
2023-04-10T03:59:14.510Z,8.63
2023-04-10T04:00:16.723Z,8.10
2023-04-10T04:01:24.146Z,8.60
2023-04-10T04:02:34.467Z,8.77
2023-04-10T04:03:36.486Z,7.83
2023-04-10T04:04:41.930Z,8.70
2023-04-10T04:06:09.675Z,8.50
2023-04-10T04:07:14.352Z,8.70
2023-04-10T04:08:32.286Z,9.13
2023-04-10T04:09:53.071Z,8.50
2023-04-10T04:11:14.190Z,8.87
2023-04-10T04:12:27.022Z,9.03
2023-04-10T04:13:43.370Z,8.80
2023-04-10T04:14:52.120Z,8.83
2023-04-10T04:16:12.863Z,8.70
2023-04-10T04:17:25.445Z,8.60
2023-04-10T04:18:49.547Z,9.00
2023-04-10T04:20:02.737Z,8.70
2023-04-10T04:21:16.338Z,8.20
2023-04-10T04:22:38.925Z,8.60
2023-04-10T04:24:11.674Z,8.73
2023-04-10T04:25:33.301Z,8.57
2023-04-10T04:26:43.262Z,8.00
2023-04-10T04:28:03.409Z,8.53
2023-04-10T04:29:27.925Z,8.77
2023-04-10T04:30:47.306Z,8.10
2023-04-10T04:32:00.538Z,8.70
2023-04-10T04:33:27.819Z,8.23
2023-04-10T04:34:51.087Z,8.10
2023-04-10T04:36:00.992Z,8.17
2023-04-10T04:37:11.329Z,8.20
2023-04-10T04:38:35.737Z,8.80
2023-04-10T04:39:50.087Z,8.27
2023-04-10T04:40:57.517Z,8.03
2023-04-10T04:42:17.668Z,8.50
2023-04-10T04:43:45.380Z,9.17
2023-04-10T04:45:11.000Z,8.67
2023-04-10T04:46:52.340Z,8.50
2023-04-10T04:48:10.287Z,8.37
2023-04-10T04:49:31.562Z,7.93
2023-04-10T04:50:53.734Z,8.37
2023-04-10T04:52:12.451Z,8.17
2023-04-10T04:53:33.672Z,8.37
2023-04-10T04:55:08.705Z,7.87
2023-04-10T04:56:36.415Z,8.30
2023-04-10T04:57:59.295Z,8.47
2023-04-10T04:59:10.394Z,7.97
2023-04-10T05:00:31.986Z,8.60
2023-04-10T05:01:43.552Z,8.30
2023-04-10T05:03:03.541Z,7.97
2023-04-10T05:04:36.104Z,8.87
2023-04-10T05:05:47.243Z,8.33
2023-04-10T05:07:00.949Z,8.07
2023-04-10T05:08:21.292Z,8.57
2023-04-10T05:09:39.607Z,8.40
2023-04-10T05:10:56.492Z,7.57
2023-04-10T05:12:12.409Z,8.50
2023-04-10T05:13:34.239Z,8.33
2023-04-10T05:14:48.751Z,8.20
2023-04-10T05:16:08.999Z,8.80
2023-04-10T05:17:16.925Z,8.07
2023-04-10T05:18:26.027Z,8.37
2023-04-10T05:19:30.920Z,7.67
2023-04-10T05:21:06.457Z,8.00
2023-04-10T05:22:31.562Z,8.07
2023-04-10T05:23:51.129Z,8.57
2023-04-10T05:25:06.604Z,8.10
2023-04-10T05:26:43.432Z,7.93
2023-04-10T05:28:06.885Z,7.70
2023-04-10T05:29:43.725Z,8.23
2023-04-10T05:30:57.161Z,7.97
2023-04-10T05:32:18.858Z,7.93
2023-04-10T05:33:40.820Z,8.80
2023-04-10T05:34:57.459Z,8.47
2023-04-10T05:36:10.492Z,7.53
2023-04-10T05:37:25.788Z,8.23
2023-04-10T05:38:38.370Z,7.93
2023-04-10T05:39:51.139Z,7.90
2023-04-10T05:41:15.260Z,8.03
2023-04-10T05:42:33.147Z,7.93
2023-04-10T05:43:45.933Z,8.37
2023-04-10T05:44:58.014Z,8.30
2023-04-10T05:46:28.521Z,8.07
2023-04-10T05:47:48.346Z,8.00
2023-04-10T05:48:55.757Z,8.43
2023-04-10T05:50:28.652Z,7.93
2023-04-10T05:52:00.240Z,7.77
2023-04-10T05:53:14.630Z,8.27
2023-04-10T05:54:37.267Z,8.13
2023-04-10T05:56:00.234Z,7.93
2023-04-10T05:57:40.422Z,7.87
2023-04-10T05:59:02.050Z,8.10
2023-04-10T06:00:30.701Z,7.70
2023-04-10T06:01:58.270Z,7.53
2023-04-10T06:02:59.690Z,7.70
2023-04-10T06:04:03.020Z,7.73
2023-04-10T06:05:05.235Z,8.10
2023-04-10T06:06:08.281Z,7.87
2023-04-10T06:07:09.806Z,7.77
2023-04-10T06:08:16.800Z,7.60
2023-04-10T06:09:18.631Z,7.70
2023-04-10T06:10:20.042Z,7.80
2023-04-10T06:11:21.770Z,7.50
2023-04-10T06:12:27.478Z,8.10
2023-04-10T06:13:30.398Z,7.60
2023-04-10T06:14:33.682Z,7.90
2023-04-10T06:15:35.547Z,7.67
2023-04-10T06:16:37.140Z,7.70
2023-04-10T06:17:42.338Z,7.67
2023-04-10T06:18:43.691Z,8.03
2023-04-10T06:19:45.073Z,7.47
2023-04-10T06:20:46.395Z,7.43
2023-04-10T06:21:47.724Z,7.83
2023-04-10T06:22:49.174Z,7.90
2023-04-10T06:23:51.058Z,7.80
2023-04-10T06:24:53.638Z,7.50
2023-04-10T06:25:56.029Z,7.60
2023-04-10T06:26:57.607Z,7.47
2023-04-10T06:27:59.383Z,7.23
2023-04-10T06:29:01.056Z,7.17
2023-04-10T06:30:02.666Z,7.63
2023-04-10T06:31:07.907Z,7.30
2023-04-10T06:32:11.577Z,7.20
2023-04-10T06:33:14.695Z,7.20
2023-04-10T06:34:18.341Z,7.87
2023-04-10T06:35:32.764Z,7.23
2023-04-10T06:36:35.006Z,7.27
2023-04-10T06:37:40.437Z,7.00
2023-04-10T06:38:42.589Z,7.17
2023-04-10T06:39:43.966Z,6.80
2023-04-10T06:40:45.536Z,7.50
2023-04-10T06:41:46.962Z,7.23
2023-04-10T06:42:59.209Z,7.60
2023-04-10T06:44:09.748Z,7.43
2023-04-10T06:45:11.304Z,7.40
2023-04-10T06:46:12.721Z,8.07
2023-04-10T06:47:16.957Z,7.60
2023-04-10T06:48:18.365Z,7.20
2023-04-10T06:49:19.828Z,7.13
2023-04-10T06:50:21.497Z,7.33
2023-04-10T06:51:23.107Z,7.77
2023-04-10T06:52:24.537Z,7.53
2023-04-10T06:53:26.142Z,7.73
2023-04-10T06:54:27.901Z,7.73
2023-04-10T06:55:30.077Z,8.03
2023-04-10T06:56:31.567Z,7.63
2023-04-10T06:57:32.866Z,7.03
2023-04-10T06:58:34.325Z,7.70
2023-04-10T06:59:36.015Z,7.40
2023-04-10T07:00:37.446Z,7.53
2023-04-10T07:01:39.012Z,7.40
2023-04-10T07:02:40.603Z,7.47
2023-04-10T07:03:42.065Z,7.43
2023-04-10T07:04:43.493Z,6.87
2023-04-10T07:05:44.817Z,7.60
2023-04-10T07:06:46.251Z,7.57
2023-04-10T07:07:47.712Z,7.43
2023-04-10T07:08:49.471Z,7.50
2023-04-10T07:09:50.900Z,7.80
2023-04-10T07:10:52.694Z,7.77
2023-04-10T07:11:57.699Z,7.57
2023-04-10T07:12:59.152Z,7.50
2023-04-10T07:14:00.801Z,7.37
2023-04-10T07:15:02.231Z,7.57
2023-04-10T07:16:03.640Z,7.30
2023-04-10T07:17:04.998Z,8.20
2023-04-10T07:18:06.553Z,8.03
2023-04-10T07:19:08.102Z,7.20
2023-04-10T07:20:09.729Z,7.03
2023-04-10T07:21:12.603Z,7.10
2023-04-10T07:22:15.761Z,7.10
2023-04-10T07:23:17.530Z,7.23
2023-04-10T07:24:19.877Z,7.60
2023-04-10T07:25:22.064Z,7.60
2023-04-10T07:26:23.490Z,6.63
2023-04-10T07:27:24.878Z,7.27
2023-04-10T07:28:26.583Z,7.33
2023-04-10T07:29:27.998Z,7.70
2023-04-10T07:30:29.673Z,7.30
2023-04-10T07:31:31.718Z,7.47
2023-04-10T07:32:35.000Z,7.60
2023-04-10T07:33:37.081Z,7.10
2023-04-10T07:34:38.457Z,7.33
2023-04-10T07:35:39.842Z,7.60
2023-04-10T07:36:41.284Z,7.40
2023-04-10T07:37:44.098Z,6.93
2023-04-10T07:38:48.408Z,6.80
2023-04-10T07:39:49.740Z,7.47
2023-04-10T07:40:57.614Z,7.27
2023-04-10T07:41:59.048Z,7.17
2023-04-10T07:43:00.448Z,7.40
2023-04-10T07:44:01.798Z,7.83
2023-04-10T07:45:03.330Z,7.07
2023-04-10T07:46:05.241Z,7.73
2023-04-10T07:47:06.605Z,7.30
2023-04-10T07:48:08.475Z,7.67
2023-04-10T07:49:09.925Z,6.70
2023-04-10T07:50:11.292Z,7.60
2023-04-10T07:51:12.798Z,7.33
2023-04-10T07:52:14.133Z,7.07
2023-04-10T07:53:15.616Z,7.10
2023-04-10T07:54:16.927Z,7.27
2023-04-10T07:55:18.359Z,7.67
2023-04-10T07:56:20.895Z,7.30
2023-04-10T07:57:22.299Z,7.70
2023-04-10T07:58:23.630Z,6.70
2023-04-10T07:59:24.951Z,7.73
2023-04-10T08:00:26.488Z,8.23
2023-04-10T08:01:28.781Z,7.20
2023-04-10T08:02:30.881Z,7.00
2023-04-10T08:03:37.768Z,7.47
2023-04-10T08:04:39.390Z,7.40
2023-04-10T08:05:40.955Z,7.40
2023-04-10T08:06:42.480Z,7.43
2023-04-10T08:07:43.859Z,7.23
2023-04-10T08:08:45.294Z,7.03
2023-04-10T08:09:47.186Z,7.03
2023-04-10T08:10:48.793Z,7.03
2023-04-10T08:11:50.891Z,6.70
2023-04-10T08:12:59.315Z,7.33
2023-04-10T08:14:02.261Z,7.37
2023-04-10T08:15:03.801Z,7.00
2023-04-10T08:16:05.292Z,7.40
2023-04-10T08:17:06.906Z,7.43
2023-04-10T08:18:08.417Z,6.80
2023-04-10T08:19:09.818Z,7.80
2023-04-10T08:20:11.680Z,7.37
2023-04-10T08:21:13.009Z,7.37
2023-04-10T08:22:14.470Z,7.77
2023-04-10T08:23:20.423Z,7.00
2023-04-10T08:24:22.982Z,7.33
2023-04-10T08:25:24.344Z,7.30
2023-04-10T08:26:26.558Z,6.97
2023-04-10T08:27:28.431Z,6.53
2023-04-10T08:28:29.779Z,7.17
2023-04-10T08:29:31.273Z,6.80
2023-04-10T08:30:32.575Z,7.57
2023-04-10T08:31:33.995Z,6.80
2023-04-10T08:32:35.926Z,7.13
2023-04-10T08:33:37.246Z,7.10
2023-04-10T08:34:38.748Z,6.90
2023-04-10T08:35:40.288Z,7.37
2023-04-10T08:36:41.866Z,7.07
2023-04-10T08:38:47.783Z,6.77
2023-04-10T08:39:49.144Z,6.33
2023-04-10T08:40:50.875Z,6.17
2023-04-10T08:41:52.171Z,6.07
2023-04-10T08:42:53.529Z,6.63
2023-04-10T08:43:56.585Z,6.33
2023-04-10T08:44:58.156Z,6.60
2023-04-10T08:45:59.534Z,6.00
2023-04-10T08:47:01.249Z,6.27
2023-04-10T08:48:05.275Z,6.37
2023-04-10T08:49:07.826Z,6.10
2023-04-10T08:50:10.901Z,6.00
2023-04-10T08:51:20.052Z,6.23
2023-04-10T08:52:23.701Z,5.80
2023-04-10T08:53:28.853Z,5.70
2023-04-10T08:54:32.663Z,5.67
2023-04-10T08:55:34.272Z,5.30
2023-04-10T08:56:36.196Z,5.80
2023-04-10T08:57:39.070Z,5.40
2023-04-10T08:58:43.089Z,5.80
2023-04-10T08:59:44.568Z,5.83
2023-04-10T09:00:46.535Z,5.53
2023-04-10T09:01:53.987Z,6.20
2023-04-10T09:02:58.244Z,6.00
2023-04-10T09:04:00.428Z,5.27
2023-04-10T09:05:03.227Z,5.77
2023-04-10T09:06:04.920Z,5.73
2023-04-10T09:07:06.625Z,6.13
2023-04-10T09:08:09.044Z,5.90
2023-04-10T09:09:10.543Z,5.70
2023-04-10T09:10:11.824Z,6.00
2023-04-10T09:11:14.392Z,5.90
2023-04-10T09:12:16.264Z,5.57
2023-04-10T09:13:34.578Z,6.23
2023-04-10T09:14:36.645Z,6.03
2023-04-10T09:16:00.580Z,5.87
2023-04-10T09:17:12.393Z,5.80
2023-04-10T09:18:13.726Z,5.43
2023-04-10T09:19:44.616Z,5.90
2023-04-10T09:20:51.391Z,5.80
2023-04-10T09:21:52.698Z,5.23
2023-04-10T09:22:54.244Z,5.83
2023-04-10T09:24:01.957Z,5.50
2023-04-10T09:25:04.184Z,5.70
2023-04-10T09:26:21.550Z,5.50
2023-04-10T09:27:31.782Z,5.27
2023-04-10T09:28:49.011Z,4.67
2023-04-10T09:29:51.672Z,5.07
2023-04-10T09:30:53.010Z,4.80
2023-04-10T09:31:54.388Z,5.03
2023-04-10T09:32:56.120Z,4.63
2023-04-10T09:34:14.059Z,4.37
2023-04-10T09:35:15.964Z,4.33
2023-04-10T09:36:18.550Z,4.00
2023-04-10T09:37:22.520Z,4.00
2023-04-10T09:38:23.967Z,4.17
2023-04-10T09:39:36.041Z,4.60
2023-04-10T09:40:37.599Z,3.87
2023-04-10T09:41:49.036Z,4.43
2023-04-10T09:42:50.754Z,4.33
2023-04-10T09:44:05.577Z,4.23
2023-04-10T09:45:07.067Z,4.00
2023-04-10T09:46:08.423Z,4.30
2023-04-10T09:47:19.987Z,4.10
2023-04-10T09:48:21.680Z,4.53
2023-04-10T09:49:23.627Z,4.13
2023-04-10T09:50:37.148Z,4.40
2023-04-10T09:51:40.969Z,4.43
2023-04-10T09:52:42.320Z,4.20
2023-04-10T09:53:52.839Z,4.20
2023-04-10T09:54:55.763Z,4.30
2023-04-10T09:55:57.163Z,4.10
2023-04-10T09:56:59.006Z,4.30
2023-04-10T09:58:00.612Z,4.87
2023-04-10T09:59:04.713Z,4.40
2023-04-10T10:00:09.705Z,4.00
2023-04-10T10:01:12.423Z,4.20
2023-04-10T10:02:16.657Z,4.40
2023-04-10T10:03:19.315Z,4.10
2023-04-10T10:04:21.134Z,4.57
2023-04-10T10:05:28.364Z,4.20
2023-04-10T10:06:33.262Z,3.97
2023-04-10T10:07:34.715Z,4.53
2023-04-10T10:08:36.494Z,4.63
2023-04-10T10:09:39.101Z,4.40
2023-04-10T10:10:45.648Z,4.37
2023-04-10T10:11:48.699Z,4.40
2023-04-10T10:12:54.403Z,4.10
2023-04-10T10:13:57.096Z,4.10
2023-04-10T10:15:16.599Z,4.40
2023-04-10T10:16:22.055Z,3.70
2023-04-10T10:17:24.603Z,4.37
2023-04-10T10:18:32.064Z,4.10
2023-04-10T10:19:39.339Z,3.83
2023-04-10T10:20:43.586Z,4.40
2023-04-10T10:21:45.756Z,4.37
2023-04-10T10:22:47.294Z,4.07
2023-04-10T10:23:53.863Z,4.33
2023-04-10T10:24:56.795Z,4.10
2023-04-10T10:25:58.279Z,4.27
2023-04-10T10:27:02.880Z,4.43
2023-04-10T10:28:04.801Z,4.17
2023-04-10T10:29:13.953Z,3.87
2023-04-10T10:30:28.762Z,3.97
2023-04-10T10:31:33.829Z,4.23
2023-04-10T10:32:36.423Z,4.23
2023-04-10T10:33:37.940Z,3.93
2023-04-10T10:34:39.442Z,4.60
2023-04-10T10:35:41.555Z,3.77
2023-04-10T10:36:42.912Z,4.17
2023-04-10T10:37:46.049Z,4.00
2023-04-10T10:38:54.381Z,4.33
2023-04-10T10:40:14.633Z,3.90
2023-04-10T10:41:25.188Z,4.13
2023-04-10T10:42:44.956Z,3.83
2023-04-10T10:43:46.316Z,3.90
2023-04-10T10:44:47.649Z,3.70
2023-04-10T10:45:55.917Z,3.80
2023-04-10T10:47:07.545Z,4.17
2023-04-10T10:48:08.918Z,4.30
2023-04-10T10:49:10.473Z,4.23
2023-04-10T10:50:11.850Z,4.30
2023-04-10T10:51:13.184Z,4.27
2023-04-10T10:52:14.556Z,4.23
2023-04-10T10:53:31.001Z,4.00
2023-04-10T10:54:33.365Z,4.30
2023-04-10T10:55:35.194Z,4.00
2023-04-10T10:56:36.541Z,4.30
2023-04-10T10:57:50.054Z,4.00
2023-04-10T10:58:57.344Z,3.93
2023-04-10T10:59:58.760Z,3.70
2023-04-10T11:01:00.330Z,3.83
2023-04-10T11:02:16.385Z,3.70
2023-04-10T11:03:17.918Z,3.93
2023-04-10T11:04:38.343Z,3.77
2023-04-10T11:05:52.825Z,3.63
2023-04-10T11:06:54.147Z,3.70
2023-04-10T11:08:07.323Z,3.80
2023-04-10T11:09:08.703Z,3.80
2023-04-10T11:10:10.256Z,3.90
2023-04-10T11:11:11.766Z,3.93
2023-04-10T11:12:13.204Z,3.70
2023-04-10T11:13:15.839Z,3.80
2023-04-10T11:14:18.356Z,3.47
2023-04-10T11:15:22.889Z,3.67
2023-04-10T11:16:41.883Z,3.70
2023-04-10T11:17:48.600Z,3.60
2023-04-10T11:18:59.322Z,3.70
2023-04-10T11:20:08.140Z,3.73
2023-04-10T11:21:10.610Z,3.57
2023-04-10T11:22:15.418Z,3.40
2023-04-10T11:23:16.783Z,3.70
2023-04-10T11:24:18.613Z,3.67
2023-04-10T11:25:19.952Z,3.37
2023-04-10T11:26:33.456Z,3.30
2023-04-10T11:28:01.512Z,3.57
2023-04-10T11:29:03.344Z,3.30
2023-04-10T11:30:24.785Z,3.50
2023-04-10T11:31:26.448Z,3.00
2023-04-10T11:32:27.892Z,3.17
2023-04-10T11:33:29.862Z,3.33
2023-04-10T11:34:32.924Z,3.27
2023-04-10T11:35:34.344Z,3.20
2023-04-10T11:36:38.553Z,3.30
2023-04-10T11:37:39.925Z,3.33
2023-04-10T11:38:41.407Z,3.43
2023-04-10T11:39:42.723Z,3.07
2023-04-10T11:40:54.502Z,3.33
2023-04-10T11:41:57.537Z,3.57
2023-04-10T11:43:12.442Z,2.97
2023-04-10T11:44:14.677Z,3.40
2023-04-10T11:45:28.299Z,3.20
2023-04-10T11:46:29.978Z,3.37
2023-04-10T11:47:31.386Z,3.10
2023-04-10T11:48:33.242Z,3.20
2023-04-10T11:49:34.862Z,2.70
2023-04-10T11:50:36.415Z,3.00
2023-04-10T11:51:38.698Z,2.80
2023-04-10T11:52:40.227Z,3.43
2023-04-10T11:53:41.744Z,3.50
2023-04-10T11:54:48.372Z,3.17
2023-04-10T11:55:49.777Z,3.07
2023-04-10T11:57:09.406Z,3.10
2023-04-10T11:58:23.693Z,2.72
2023-04-10T11:59:25.395Z,2.90
2023-04-10T12:00:26.703Z,2.90
2023-04-10T12:01:28.144Z,3.03
2023-04-10T12:02:29.549Z,2.87
2023-04-10T12:03:32.204Z,2.85
2023-04-10T12:04:33.792Z,3.10
2023-04-10T12:05:45.769Z,2.90
2023-04-10T12:06:51.375Z,3.03
2023-04-10T12:07:52.737Z,3.25
2023-04-10T12:08:54.495Z,2.58
2023-04-10T12:09:57.157Z,2.92
2023-04-10T12:10:58.875Z,2.78
2023-04-10T12:12:04.158Z,2.95
2023-04-10T12:13:06.237Z,2.90
2023-04-10T12:14:08.000Z,3.28
2023-04-10T12:15:28.314Z,2.88
2023-04-10T12:16:30.131Z,2.88
2023-04-10T12:17:32.217Z,3.00
2023-04-10T12:18:33.801Z,2.95
2023-04-10T12:19:35.333Z,2.80
2023-04-10T12:20:36.741Z,2.70
2023-04-10T12:21:39.379Z,2.50
2023-04-10T12:22:41.130Z,2.83
2023-04-10T12:23:42.792Z,19.67
2023-04-10T12:24:48.303Z,20.85
2023-04-10T12:25:50.682Z,8.80
2023-04-10T12:26:52.039Z,6.68
2023-04-10T12:27:53.522Z,4.47
2023-04-10T12:28:57.503Z,34.92
2023-04-10T12:29:59.204Z,47.20
2023-04-10T12:31:00.682Z,30.60
2023-04-10T12:32:08.558Z,7.43
2023-04-10T12:33:09.921Z,14.70
2023-04-10T12:34:18.102Z,16.88
2023-04-10T12:35:19.522Z,3.17
2023-04-10T12:36:22.103Z,3.10
2023-04-10T12:37:24.085Z,2.60
2023-04-10T12:38:42.102Z,2.45
2023-04-10T12:39:44.896Z,2.50
2023-04-10T12:40:59.286Z,2.67
2023-04-10T12:42:20.928Z,2.75
2023-04-10T12:43:35.988Z,2.45
2023-04-10T12:44:50.045Z,2.20
2023-04-10T12:45:56.359Z,2.20
2023-04-10T12:47:01.941Z,2.15
2023-04-10T12:48:03.592Z,2.30
2023-04-10T12:49:12.706Z,2.15
2023-04-10T12:50:15.086Z,2.08
2023-04-10T12:51:16.550Z,2.60
2023-04-10T12:52:23.971Z,2.35
2023-04-10T12:53:25.614Z,2.35
2023-04-10T12:54:28.003Z,2.00
2023-04-10T12:55:29.665Z,2.10
2023-04-10T12:56:40.498Z,2.10
2023-04-10T12:57:42.528Z,1.98
2023-04-10T12:58:44.333Z,2.13
2023-04-10T12:59:45.655Z,2.08
2023-04-10T13:00:47.506Z,2.20
2023-04-10T13:01:48.918Z,2.10
2023-04-10T13:02:50.508Z,1.77
2023-04-10T13:03:52.414Z,1.98
2023-04-10T13:04:54.308Z,2.00
2023-04-10T13:05:55.781Z,2.20
2023-04-10T13:06:57.365Z,2.10
2023-04-10T13:07:59.047Z,1.90
2023-04-10T13:09:03.502Z,2.38
2023-04-10T13:10:05.948Z,2.20
2023-04-10T13:11:08.140Z,1.92
2023-04-10T13:12:09.662Z,2.03
2023-04-10T13:13:14.027Z,2.00
2023-04-10T13:14:16.031Z,1.90
2023-04-10T13:15:17.854Z,1.90
2023-04-10T13:16:19.619Z,2.03
2023-04-10T13:17:21.742Z,1.90
2023-04-10T13:18:23.641Z,1.85
2023-04-10T13:19:25.148Z,1.95
2023-04-10T13:20:26.475Z,2.22
2023-04-10T13:21:28.778Z,1.98
2023-04-10T13:22:30.216Z,2.05
2023-04-10T13:23:31.641Z,2.00
2023-04-10T13:24:33.101Z,1.83
2023-04-10T13:25:36.271Z,1.70
2023-04-10T13:26:37.688Z,1.73
2023-04-10T13:27:39.043Z,1.90
2023-04-10T13:28:40.485Z,1.90
2023-04-10T13:29:42.631Z,1.83
2023-04-10T13:30:44.044Z,1.70
2023-04-10T13:31:45.482Z,1.83
2023-04-10T13:32:46.829Z,1.88
2023-04-10T13:33:48.288Z,1.73
2023-04-10T13:34:49.794Z,1.98
2023-04-10T13:35:51.224Z,2.20
2023-04-10T13:36:55.269Z,1.73
2023-04-10T13:37:56.608Z,1.90
2023-04-10T13:38:57.915Z,1.80
2023-04-10T13:39:59.904Z,1.90
2023-04-10T13:41:01.698Z,1.60
2023-04-10T13:42:03.029Z,1.83
2023-04-10T13:43:07.600Z,1.70
2023-04-10T13:44:08.938Z,1.60
2023-04-10T13:45:10.717Z,1.85
2023-04-10T13:46:12.060Z,1.75
2023-04-10T13:47:13.484Z,1.48
2023-04-10T13:48:17.563Z,1.50
2023-04-10T13:49:22.346Z,1.77
2023-04-10T13:50:23.903Z,1.60
2023-04-10T13:51:25.811Z,1.55
2023-04-10T13:52:29.519Z,1.65
2023-04-10T13:53:31.140Z,1.85
2023-04-10T13:54:32.488Z,1.33
2023-04-10T13:55:37.975Z,1.70
2023-04-10T13:56:39.427Z,4.75
2023-04-10T13:57:43.827Z,2.42
2023-04-10T13:58:49.206Z,1.70
2023-04-10T13:59:50.655Z,1.80
2023-04-10T14:00:55.497Z,1.60
2023-04-10T14:01:56.962Z,2.30
2023-04-10T14:02:59.066Z,1.83
2023-04-10T14:04:00.847Z,1.83
2023-04-10T14:05:02.554Z,1.65
2023-04-10T14:06:04.209Z,1.90
2023-04-10T14:07:06.476Z,1.48
2023-04-10T14:08:11.642Z,1.80
2023-04-10T14:09:13.068Z,2.30
2023-04-10T14:10:17.051Z,1.70
2023-04-10T14:11:18.747Z,1.70
2023-04-10T14:12:23.153Z,1.80
2023-04-10T14:13:32.070Z,1.70
2023-04-10T14:14:33.484Z,1.40
2023-04-10T14:15:34.937Z,1.25
2023-04-10T14:16:36.461Z,1.30
2023-04-10T14:17:38.098Z,1.40
2023-04-10T14:18:39.590Z,1.40
2023-04-10T14:19:41.553Z,1.40
2023-04-10T14:20:43.200Z,1.60
2023-04-10T14:21:44.793Z,1.40
2023-04-10T14:22:47.369Z,1.50
2023-04-10T14:23:49.275Z,1.85
2023-04-10T14:24:52.612Z,1.63
2023-04-10T14:25:57.796Z,1.60
2023-04-10T14:27:01.271Z,1.50
2023-04-10T14:28:02.639Z,1.90
2023-04-10T14:29:04.042Z,2.13
2023-04-10T14:30:05.809Z,2.00
2023-04-10T14:31:08.057Z,2.40
2023-04-10T14:32:09.700Z,2.20
2023-04-10T14:33:15.076Z,2.20